Hovedside
METAR-TAF:

METAR-TAF

Lufthavner :

Göteborg-Landvetter lufthavn

Göteborg-Landvetter, Sverige

breddegrad: 57-40N, lengdegrad: 012-18E, høyde over havet: 169 m

Gjeldene værobservasjon

Denne rapporten ble laget for 33 minutter siden, klokken 15:20 UTC
Vind 9 kt fra Sørvest
Temperatur 27°C
Luftfuktighet 37%
Trykk 1024 hPa
Sikt 10 km eller mer
ingen skyer under 1500 m og ingen bygeskyer

METAR: ESGG 071520Z 22009KT CAVOK 27/11 Q1024

Tid: 17:53 (15:53 UTC)

Varsel

Denne rapporten ble laget for 4 timer og 23 minutter siden, klokken 11:30 UTC
Varsel gyldig fra 07. klokken 12 UTC til 08. klokken 12 UTC
Vind 5 kt fra Sør-sørøst
Sikt 10 km eller mer
ingen skyer under 1500 m og ingen bygeskyer
Sannsynlighet 40%
fra 07. klokken 12 UTC til 07. klokken 16 UTC
Vind 10 kt fra Sørvest

TAF: ESGG 071130Z 0712/0812 15005KT CAVOK PROB40 0712/0716 23010KT

Værobservasjoner og værvarsel for over 4000 flyplasser (METAR- og TAF-rapporter).

Tilgjengelige stasjoner er representert av de røde og gule prikkene på kartet.

Hold musepekeren over prikken for å se navnet på stasjonen.

Klikk så for å se værobservasjoner og -varsler.

For å forandre kartet kan du klikke på den grønne knappen med svart kryss for å zoome inn, på den grønne knappen med strek for å zoome ut, eller på de grønne pilene for å se tilstøtende kart.


METAR-TAF: